Time;durP1;ratioP1;P1;durP2;ratioP2;P2;SDS_P1;SDS_P2;PMS_P1;PMS_P2;Temp;Humidity;BMP_temperature;BMP_pressure;BME280_temperature;BME280_humidity;BME280_pressure;Samples;Min_cycle;Max_cycle;Signal;HPM_P1;HPM_P2
2022/07/02 00:00:04;;;;;;;61.30;3.70;;;;;;;;;;5052076;28;20487;-67
2022/07/02 00:02:34;;;;;;;59.07;3.37;;;;;;;;;;5052044;28;20908;-67
2022/07/02 00:05:03;;;;;;;60.70;4.47;;;;;;;;;;5052080;28;20478;-67
2022/07/02 00:07:31;;;;;;;59.40;3.60;;;;;;;;;;5052023;28;20449;-67
2022/07/02 00:09:59;;;;;;;60.10;3.50;;;;;;;;;;5052113;28;20450;-67
2022/07/02 00:12:27;;;;;;;59.70;3.87;;;;;;;;;;5051881;28;20535;-67
2022/07/02 00:14:55;;;;;;;59.97;4.10;;;;;;;;;;5052023;28;20456;-67
2022/07/02 00:17:27;;;;;;;59.97;4.00;;;;;;;;;;5033953;28;20503;-67
2022/07/02 00:19:54;;;;;;;59.90;3.93;;;;;;;;;;5051952;28;20534;-67
2022/07/02 00:22:22;;;;;;;59.67;4.00;;;;;;;;;;5052155;28;20544;-67
2022/07/02 00:24:49;;;;;;;59.07;3.50;;;;;;;;;;5071926;28;20461;-67
2022/07/02 00:27:19;;;;;;;59.53;3.80;;;;;;;;;;5071710;28;20447;-67
2022/07/02 00:29:54;;;;;;;59.93;3.77;;;;;;;;;;5072120;28;20825;-68
2022/07/02 00:32:21;;;;;;;59.57;3.53;;;;;;;;;;5070120;28;20539;-67
2022/07/02 00:34:51;;;;;;;60.27;4.20;;;;;;;;;;5071725;28;20444;-67
2022/07/02 00:37:21;;;;;;;59.50;3.60;;;;;;;;;;5071427;28;20503;-67
2022/07/02 00:39:49;;;;;;;59.30;3.50;;;;;;;;;;5071443;28;20940;-67
2022/07/02 00:42:16;;;;;;;61.07;4.57;;;;;;;;;;5070417;28;20451;-67
2022/07/02 00:44:43;;;;;;;60.60;4.30;;;;;;;;;;5071280;28;20465;-68
2022/07/02 00:47:11;;;;;;;59.60;3.67;;;;;;;;;;5071268;28;20445;-67
2022/07/02 00:49:39;;;;;;;59.47;3.47;;;;;;;;;;5071876;28;20535;-67
2022/07/02 00:52:11;;;;;;;59.37;3.43;;;;;;;;;;5070880;28;20542;-67
2022/07/02 00:54:39;;;;;;;59.43;3.60;;;;;;;;;;5070080;28;20510;-67
2022/07/02 00:57:07;;;;;;;59.80;3.73;;;;;;;;;;5068557;28;20447;-68
2022/07/02 00:59:34;;;;;;;59.30;3.73;;;;;;;;;;5071290;28;20453;-67
2022/07/02 01:02:04;;;;;;;59.57;3.80;;;;;;;;;;5071537;28;20445;-67
2022/07/02 01:04:34;;;;;;;61.03;4.60;;;;;;;;;;5071073;28;20477;-67
2022/07/02 01:07:03;;;;;;;60.97;4.10;;;;;;;;;;5070048;28;20536;-67
2022/07/02 01:12:19;;;;;;;60.17;4.33;;;;;;;;;;5070992;28;20424;-67
2022/07/02 01:14:58;;;;;;;59.60;3.97;;;;;;;;;;5071195;28;20453;-67
2022/07/02 01:17:26;;;;;;;60.20;4.00;;;;;;;;;;5071061;28;20574;-67
2022/07/02 01:19:53;;;;;;;62.37;3.97;;;;;;;;;;5071003;28;20449;-67
2022/07/02 01:22:23;;;;;;;59.90;4.00;;;;;;;;;;5071300;28;20460;-67
2022/07/02 01:24:59;;;;;;;60.07;3.57;;;;;;;;;;5071072;28;20448;-67
2022/07/02 01:27:28;;;;;;;60.00;4.03;;;;;;;;;;5070881;28;20440;-67
2022/07/02 01:29:56;;;;;;;60.87;4.00;;;;;;;;;;5068792;28;20452;-67
2022/07/02 01:32:23;;;;;;;59.90;3.90;;;;;;;;;;5070618;28;20958;-67
2022/07/02 01:34:51;;;;;;;60.20;4.33;;;;;;;;;;5069740;28;21038;-67
2022/07/02 01:37:20;;;;;;;59.70;4.27;;;;;;;;;;5070379;28;20453;-67
2022/07/02 01:39:50;;;;;;;60.13;3.77;;;;;;;;;;5071186;28;20452;-67
2022/07/02 01:42:17;;;;;;;60.27;3.73;;;;;;;;;;5070593;28;20459;-67
2022/07/02 01:47:48;;;;;;;60.70;3.80;;;;;;;;;;5068358;28;20459;-67
2022/07/02 01:50:15;;;;;;;60.73;4.10;;;;;;;;;;5070699;28;20512;-68
2022/07/02 01:52:43;;;;;;;61.23;4.00;;;;;;;;;;5070396;28;20475;-67
2022/07/02 01:55:12;;;;;;;61.70;4.00;;;;;;;;;;5070827;28;20452;-67
2022/07/02 01:57:41;;;;;;;60.07;3.87;;;;;;;;;;5069873;28;20485;-67
2022/07/02 02:00:10;;;;;;;60.17;3.77;;;;;;;;;;5069327;28;20476;-67
2022/07/02 02:02:38;;;;;;;63.53;4.50;;;;;;;;;;5069515;28;20971;-67
2022/07/02 02:05:05;;;;;;;62.77;4.67;;;;;;;;;;5072029;28;20574;-67
2022/07/02 02:07:34;;;;;;;63.93;4.23;;;;;;;;;;5074196;28;20976;-67
2022/07/02 02:10:01;;;;;;;60.40;4.77;;;;;;;;;;5074140;28;20447;-67
2022/07/02 02:12:32;;;;;;;59.30;3.60;;;;;;;;;;5074144;28;20832;-67
2022/07/02 02:14:59;;;;;;;59.80;3.90;;;;;;;;;;5074193;28;20449;-67
2022/07/02 02:17:26;;;;;;;62.73;4.23;;;;;;;;;;5073939;28;20547;-67
2022/07/02 02:19:54;;;;;;;59.80;3.83;;;;;;;;;;5074051;28;20952;-67
2022/07/02 02:22:21;;;;;;;60.37;4.40;;;;;;;;;;5073982;28;20835;-67
2022/07/02 02:24:49;;;;;;;59.90;3.90;;;;;;;;;;5072739;28;20452;-67
2022/07/02 02:27:16;;;;;;;61.30;4.13;;;;;;;;;;5073787;28;20457;-67
2022/07/02 02:29:45;;;;;;;59.73;3.90;;;;;;;;;;5073943;28;20871;-67
2022/07/02 02:32:12;;;;;;;60.30;4.43;;;;;;;;;;5073562;28;20484;-67
2022/07/02 02:34:39;;;;;;;61.67;4.17;;;;;;;;;;5073930;28;20830;-67
2022/07/02 02:37:08;;;;;;;59.30;3.57;;;;;;;;;;5072476;28;20825;-68
2022/07/02 02:39:35;;;;;;;60.87;4.30;;;;;;;;;;5073957;28;20481;-67
2022/07/02 02:42:03;;;;;;;60.33;3.60;;;;;;;;;;5073392;28;20451;-67
2022/07/02 02:44:32;;;;;;;60.10;3.80;;;;;;;;;;5073358;28;21013;-67
2022/07/02 02:47:01;;;;;;;60.20;4.30;;;;;;;;;;5073638;28;20457;-67
2022/07/02 02:49:28;;;;;;;59.77;3.67;;;;;;;;;;5073609;28;20478;-67
2022/07/02 02:51:55;;;;;;;60.10;3.80;;;;;;;;;;5073459;28;20450;-67
2022/07/02 02:54:22;;;;;;;59.70;3.73;;;;;;;;;;5073466;28;20546;-67
2022/07/02 02:56:49;;;;;;;59.70;3.77;;;;;;;;;;5073552;28;20446;-67
2022/07/02 02:59:17;;;;;;;61.97;3.60;;;;;;;;;;5073045;28;20862;-68
2022/07/02 03:01:46;;;;;;;59.90;3.53;;;;;;;;;;5073571;28;20450;-67
2022/07/02 03:04:18;;;;;;;59.47;3.60;;;;;;;;;;5073169;28;20467;-67
2022/07/02 03:06:45;;;;;;;61.50;3.83;;;;;;;;;;5073346;28;20507;-68
2022/07/02 03:09:12;;;;;;;59.47;3.57;;;;;;;;;;5072942;28;20446;-67
2022/07/02 03:11:40;;;;;;;60.03;4.00;;;;;;;;;;5071259;28;20464;-67
2022/07/02 03:14:07;;;;;;;59.80;3.77;;;;;;;;;;5072271;28;20474;-67
2022/07/02 03:16:34;;;;;;;61.57;3.83;;;;;;;;;;5071516;28;20547;-67
2022/07/02 03:19:01;;;;;;;60.83;3.47;;;;;;;;;;5072846;28;20490;-67
2022/07/02 03:21:31;;;;;;;60.20;4.03;;;;;;;;;;5072830;28;20454;-67
2022/07/02 03:23:58;;;;;;;60.57;3.97;;;;;;;;;;5072859;28;20550;-67
2022/07/02 03:26:31;;;;;;;60.57;4.10;;;;;;;;;;5071428;28;20455;-67
2022/07/02 03:28:58;;;;;;;59.60;3.60;;;;;;;;;;5072625;28;21033;-67
2022/07/02 03:31:25;;;;;;;59.50;3.47;;;;;;;;;;5072980;28;20533;-67
2022/07/02 03:33:55;;;;;;;59.17;3.30;;;;;;;;;;5072319;28;20567;-67
2022/07/02 03:36:23;;;;;;;60.00;4.20;;;;;;;;;;5072592;28;20446;-67
2022/07/02 03:38:53;;;;;;;59.37;3.80;;;;;;;;;;5072217;28;20492;-68
2022/07/02 03:41:20;;;;;;;59.87;3.97;;;;;;;;;;5071353;28;20464;-67
2022/07/02 03:43:49;;;;;;;60.30;4.47;;;;;;;;;;5070636;28;20482;-67
2022/07/02 03:46:16;;;;;;;59.90;3.60;;;;;;;;;;5072454;28;20457;-67
2022/07/02 03:48:45;;;;;;;59.37;3.43;;;;;;;;;;5072274;28;20479;-67
2022/07/02 03:51:12;;;;;;;59.60;3.50;;;;;;;;;;5072406;28;20978;-67
2022/07/02 03:53:41;;;;;;;60.37;4.43;;;;;;;;;;5072450;28;20468;-67
2022/07/02 03:56:12;;;;;;;66.33;4.80;;;;;;;;;;5072392;28;20455;-67
2022/07/02 03:58:47;;;;;;;59.60;3.50;;;;;;;;;;5072142;28;20533;-67
2022/07/02 04:01:14;;;;;;;59.63;3.63;;;;;;;;;;5072256;28;20446;-67
2022/07/02 04:03:43;;;;;;;59.57;3.80;;;;;;;;;;5072181;28;20935;-68
2022/07/02 04:06:10;;;;;;;69.23;4.13;;;;;;;;;;5070788;28;20443;-67
2022/07/02 04:08:37;;;;;;;59.47;3.30;;;;;;;;;;5071769;28;20445;-67
2022/07/02 04:11:07;;;;;;;59.27;3.50;;;;;;;;;;5072158;28;20457;-67
2022/07/02 04:13:35;;;;;;;59.30;3.53;;;;;;;;;;5071824;28;20559;-67
2022/07/02 04:16:03;;;;;;;59.30;3.40;;;;;;;;;;5068379;28;20795;-67
2022/07/02 04:18:30;;;;;;;59.50;3.50;;;;;;;;;;5071518;28;20999;-67
2022/07/02 04:20:58;;;;;;;59.67;3.80;;;;;;;;;;5072045;28;20450;-67
2022/07/02 04:23:25;;;;;;;59.20;3.63;;;;;;;;;;5071909;28;20472;-68
2022/07/02 04:25:52;;;;;;;59.70;4.27;;;;;;;;;;5071543;28;20947;-67
2022/07/02 04:28:20;;;;;;;61.20;3.83;;;;;;;;;;5070966;28;20442;-67
2022/07/02 04:30:50;;;;;;;59.17;3.20;;;;;;;;;;5071802;28;20798;-67
2022/07/02 04:33:17;;;;;;;60.03;3.70;;;;;;;;;;5070546;28;20475;-67
2022/07/02 04:35:45;;;;;;;59.40;4.00;;;;;;;;;;5071718;28;20435;-67
2022/07/02 04:38:15;;;;;;;60.27;3.63;;;;;;;;;;5071159;28;20661;-67
2022/07/02 04:40:42;;;;;;;60.30;4.00;;;;;;;;;;5071449;28;20456;-67
2022/07/02 04:43:09;;;;;;;61.30;4.07;;;;;;;;;;5071347;28;21040;-68
2022/07/02 04:45:37;;;;;;;59.60;3.80;;;;;;;;;;5071776;28;20476;-67
2022/07/02 04:48:08;;;;;;;59.47;3.93;;;;;;;;;;5071530;28;20473;-67
2022/07/02 04:50:35;;;;;;;64.23;5.20;;;;;;;;;;5069410;28;20952;-67
2022/07/02 04:53:02;;;;;;;59.70;3.60;;;;;;;;;;5071321;28;20880;-67
2022/07/02 04:55:30;;;;;;;59.20;3.40;;;;;;;;;;5071330;28;20443;-67
2022/07/02 04:57:57;;;;;;;60.00;3.80;;;;;;;;;;5070692;28;20448;-67
2022/07/02 05:00:25;;;;;;;60.47;3.70;;;;;;;;;;5070074;28;20490;-67
2022/07/02 05:02:53;;;;;;;62.27;4.00;;;;;;;;;;5071407;28;20477;-67
2022/07/02 05:05:21;;;;;;;59.10;3.50;;;;;;;;;;5071325;28;20449;-67
2022/07/02 05:07:49;;;;;;;59.10;3.10;;;;;;;;;;5070877;28;20970;-67
2022/07/02 05:10:16;;;;;;;59.00;3.53;;;;;;;;;;5071397;28;20501;-67
2022/07/02 05:12:44;;;;;;;59.57;3.80;;;;;;;;;;5071092;28;20471;-67
2022/07/02 05:15:11;;;;;;;59.57;3.50;;;;;;;;;;5071305;28;20458;-67
2022/07/02 05:17:38;;;;;;;58.67;3.33;;;;;;;;;;5069618;28;20458;-68
2022/07/02 05:20:09;;;;;;;59.50;3.27;;;;;;;;;;5071419;28;20852;-67
2022/07/02 05:22:40;;;;;;;59.70;4.07;;;;;;;;;;5069115;28;20848;-67
2022/07/02 05:25:07;;;;;;;59.10;3.37;;;;;;;;;;5070914;28;20545;-67
2022/07/02 05:27:35;;;;;;;59.00;3.60;;;;;;;;;;5071130;28;20454;-67
2022/07/02 05:30:03;;;;;;;65.97;3.60;;;;;;;;;;5071331;28;20450;-67
2022/07/02 05:32:30;;;;;;;59.13;3.47;;;;;;;;;;5070929;28;20453;-67
2022/07/02 05:34:57;;;;;;;59.20;3.40;;;;;;;;;;5069709;28;20443;-67
2022/07/02 05:37:24;;;;;;;59.17;3.50;;;;;;;;;;5069605;28;20534;-67
2022/07/02 05:39:54;;;;;;;59.27;3.57;;;;;;;;;;5073797;28;20483;-67
2022/07/02 05:42:21;;;;;;;60.10;3.77;;;;;;;;;;5074484;28;20470;-67
2022/07/02 05:44:49;;;;;;;59.50;3.63;;;;;;;;;;5074622;28;20980;-67
2022/07/02 05:47:20;;;;;;;59.30;3.30;;;;;;;;;;5074504;28;20484;-67
2022/07/02 05:49:50;;;;;;;59.50;3.40;;;;;;;;;;5074792;28;20439;-67
2022/07/02 05:52:18;;;;;;;59.17;3.50;;;;;;;;;;5074443;28;20833;-67
2022/07/02 05:54:45;;;;;;;63.40;3.77;;;;;;;;;;5071279;28;20447;-67
2022/07/02 05:57:14;;;;;;;58.57;3.10;;;;;;;;;;5074106;28;20943;-67
2022/07/02 05:59:41;;;;;;;59.70;3.23;;;;;;;;;;5074407;28;20492;-68
2022/07/02 06:02:09;;;;;;;59.57;3.50;;;;;;;;;;5073151;28;20458;-67
2022/07/02 06:04:36;;;;;;;59.67;3.30;;;;;;;;;;5072958;28;21090;-67
2022/07/02 06:09:50;;;;;;;60.70;3.97;;;;;;;;;;5074464;28;20496;-68
2022/07/02 06:12:18;;;;;;;60.37;3.67;;;;;;;;;;5074448;28;20507;-67
2022/07/02 06:14:45;;;;;;;59.83;3.40;;;;;;;;;;5074220;28;20536;-67
2022/07/02 06:17:13;;;;;;;59.47;3.53;;;;;;;;;;5073733;28;20448;-67
2022/07/02 06:19:42;;;;;;;59.47;3.50;;;;;;;;;;5074312;28;20486;-67
2022/07/02 06:22:10;;;;;;;63.10;3.90;;;;;;;;;;5074381;28;20512;-67
2022/07/02 06:24:37;;;;;;;60.70;3.70;;;;;;;;;;5073739;28;20467;-67
2022/07/02 06:27:06;;;;;;;58.90;2.97;;;;;;;;;;5071401;28;20458;-68
2022/07/02 06:29:35;;;;;;;59.50;3.30;;;;;;;;;;5073756;28;20800;-67
2022/07/02 06:32:03;;;;;;;59.00;3.30;;;;;;;;;;5073922;28;21002;-67
2022/07/02 06:34:30;;;;;;;58.80;2.80;;;;;;;;;;5073909;28;20471;-67
2022/07/02 06:36:57;;;;;;;59.07;3.47;;;;;;;;;;5073794;28;20473;-67
2022/07/02 06:39:27;;;;;;;59.70;3.33;;;;;;;;;;5073379;28;20471;-67
2022/07/02 06:44:41;;;;;;;58.87;2.80;;;;;;;;;;5073561;28;20828;-68
2022/07/02 06:47:08;;;;;;;58.97;3.13;;;;;;;;;;5073438;28;20459;-68
2022/07/02 06:49:35;;;;;;;59.10;3.53;;;;;;;;;;5073184;28;20510;-68
2022/07/02 06:52:03;;;;;;;59.20;3.43;;;;;;;;;;5072928;28;20878;-68
2022/07/02 06:54:32;;;;;;;58.63;2.90;;;;;;;;;;5072225;28;20473;-67
2022/07/02 06:56:59;;;;;;;58.70;2.80;;;;;;;;;;5073522;28;20448;-67
2022/07/02 06:59:27;;;;;;;58.43;2.70;;;;;;;;;;5072971;28;20571;-66
2022/07/02 07:01:56;;;;;;;59.77;3.60;;;;;;;;;;5073421;28;20948;-66
2022/07/02 07:04:23;;;;;;;60.47;3.17;;;;;;;;;;5073427;28;20495;-66
2022/07/02 07:06:52;;;;;;;59.10;3.33;;;;;;;;;;5072974;28;20540;-68
2022/07/02 07:09:19;;;;;;;58.50;3.00;;;;;;;;;;5065294;28;20446;-67
2022/07/02 07:11:46;;;;;;;58.57;3.03;;;;;;;;;;5052847;28;20453;-68
2022/07/02 07:14:14;;;;;;;59.70;3.03;;;;;;;;;;5053267;28;20975;-68
2022/07/02 07:16:41;;;;;;;58.47;2.70;;;;;;;;;;5065473;28;20454;-68
2022/07/02 07:19:10;;;;;;;58.87;3.00;;;;;;;;;;5072561;28;20480;-68
2022/07/02 07:21:39;;;;;;;58.63;2.60;;;;;;;;;;5072927;28;20457;-68
2022/07/02 07:24:07;;;;;;;58.67;3.00;;;;;;;;;;5073313;28;20470;-68
2022/07/02 07:26:35;;;;;;;58.63;3.00;;;;;;;;;;5072709;28;20470;-68
2022/07/02 07:29:05;;;;;;;58.50;2.60;;;;;;;;;;5072429;28;20457;-68
2022/07/02 07:31:33;;;;;;;58.77;3.03;;;;;;;;;;5073342;28;20490;-68
2022/07/02 07:34:00;;;;;;;58.47;2.73;;;;;;;;;;5072444;28;20470;-68
2022/07/02 07:36:30;;;;;;;58.43;2.70;;;;;;;;;;5072524;28;20449;-68
2022/07/02 07:38:59;;;;;;;58.87;3.17;;;;;;;;;;5072375;28;20447;-68
2022/07/02 07:41:26;;;;;;;58.87;3.37;;;;;;;;;;5072471;28;21015;-68
2022/07/02 07:43:55;;;;;;;58.90;3.13;;;;;;;;;;5072321;28;20996;-68
2022/07/02 07:46:24;;;;;;;58.77;2.70;;;;;;;;;;5072601;28;20459;-68
2022/07/02 07:48:51;;;;;;;58.63;3.37;;;;;;;;;;5070024;28;20540;-68
2022/07/02 07:51:22;;;;;;;58.77;3.10;;;;;;;;;;5071185;28;20458;-68
2022/07/02 07:53:53;;;;;;;58.37;2.67;;;;;;;;;;5072190;28;20467;-68
2022/07/02 07:56:22;;;;;;;58.47;2.70;;;;;;;;;;5072430;28;20815;-67
2022/07/02 07:58:50;;;;;;;61.67;2.90;;;;;;;;;;5071647;28;20451;-68
2022/07/02 08:01:17;;;;;;;58.80;2.70;;;;;;;;;;5071932;28;20479;-67
2022/07/02 08:03:45;;;;;;;60.87;2.47;;;;;;;;;;5071426;28;20474;-67
2022/07/02 08:06:13;;;;;;;58.87;3.10;;;;;;;;;;5072390;28;20443;-68
2022/07/02 08:08:40;;;;;;;59.97;2.80;;;;;;;;;;5071756;28;20826;-68
2022/07/02 08:11:18;;;;;;;58.70;2.70;;;;;;;;;;5070721;28;20443;-67
2022/07/02 08:13:46;;;;;;;58.37;2.57;;;;;;;;;;5071860;28;20509;-68
2022/07/02 08:16:14;;;;;;;59.20;2.70;;;;;;;;;;5071996;28;20455;-66
2022/07/02 08:18:41;;;;;;;58.77;2.87;;;;;;;;;;5070575;28;20537;-68
2022/07/02 08:21:08;;;;;;;58.37;2.60;;;;;;;;;;5069586;28;20855;-68
2022/07/02 08:23:38;;;;;;;58.40;2.40;;;;;;;;;;5071823;28;20463;-68
2022/07/02 08:26:07;;;;;;;58.70;2.80;;;;;;;;;;5071736;28;20439;-68
2022/07/02 08:28:35;;;;;;;58.23;2.60;;;;;;;;;;5071204;28;20447;-68
2022/07/02 08:31:05;;;;;;;58.17;2.60;;;;;;;;;;5072037;28;20812;-68
2022/07/02 08:33:32;;;;;;;58.40;2.70;;;;;;;;;;5071840;28;20463;-69
2022/07/02 08:36:01;;;;;;;58.40;2.77;;;;;;;;;;5071571;28;20447;-68
2022/07/02 08:38:28;;;;;;;58.57;2.70;;;;;;;;;;5071455;28;20451;-68
2022/07/02 08:40:57;;;;;;;58.27;2.70;;;;;;;;;;5071259;28;20483;-68
2022/07/02 08:43:27;;;;;;;58.50;2.30;;;;;;;;;;5071289;28;20467;-68
2022/07/02 08:45:59;;;;;;;58.60;2.70;;;;;;;;;;5071676;28;20443;-68
2022/07/02 08:48:28;;;;;;;59.27;2.50;;;;;;;;;;5071657;28;20469;-67
2022/07/02 08:50:57;;;;;;;58.27;2.50;;;;;;;;;;5071361;28;20454;-67
2022/07/02 08:53:26;;;;;;;58.03;2.50;;;;;;;;;;5069148;28;20474;-67
2022/07/02 08:55:55;;;;;;;58.80;2.47;;;;;;;;;;5071722;28;20449;-67
2022/07/02 08:58:23;;;;;;;59.63;3.00;;;;;;;;;;5071225;28;20455;-67
2022/07/02 09:00:51;;;;;;;58.40;2.30;;;;;;;;;;5071336;28;20615;-67
2022/07/02 09:03:29;;;;;;;58.60;2.60;;;;;;;;;;5071399;28;20464;-68
2022/07/02 09:05:57;;;;;;;57.77;2.50;;;;;;;;;;5071338;28;20443;-68
2022/07/02 09:08:25;;;;;;;58.30;2.43;;;;;;;;;;5071526;28;20642;-67
2022/07/02 09:10:53;;;;;;;59.10;2.57;;;;;;;;;;5071166;28;20572;-67
2022/07/02 09:13:21;;;;;;;57.87;2.50;;;;;;;;;;5071812;28;20471;-67
2022/07/02 09:15:49;;;;;;;59.17;2.70;;;;;;;;;;5075556;28;20453;-67
2022/07/02 09:18:16;;;;;;;59.47;3.13;;;;;;;;;;5074977;28;20469;-68
2022/07/02 09:20:45;;;;;;;58.50;2.40;;;;;;;;;;5075181;28;20489;-67
2022/07/02 09:23:20;;;;;;;58.07;2.60;;;;;;;;;;5075303;28;20541;-67
2022/07/02 09:25:48;;;;;;;59.77;2.50;;;;;;;;;;5073067;28;20816;-67
2022/07/02 09:28:17;;;;;;;57.97;2.50;;;;;;;;;;5075059;28;20447;-68
2022/07/02 09:30:47;;;;;;;57.97;2.27;;;;;;;;;;5074672;28;20479;-67
2022/07/02 09:33:35;;;;;;;57.87;2.50;;;;;;;;;;5075112;28;21000;-67
2022/07/02 09:36:12;;;;;;;57.87;2.20;;;;;;;;;;5075147;28;20443;-67
2022/07/02 09:38:43;;;;;;;58.70;2.60;;;;;;;;;;5074553;28;20450;-68
2022/07/02 09:41:12;;;;;;;58.43;2.47;;;;;;;;;;5074912;28;20536;-68
2022/07/02 09:43:44;;;;;;;58.10;2.53;;;;;;;;;;5074552;28;20478;-68
2022/07/02 09:46:18;;;;;;;58.30;2.57;;;;;;;;;;5075102;28;20878;-68
2022/07/02 09:48:47;;;;;;;59.00;2.33;;;;;;;;;;5074553;28;20823;-67
2022/07/02 09:51:19;;;;;;;59.13;2.20;;;;;;;;;;5074595;28;20550;-68
2022/07/02 09:53:51;;;;;;;57.97;2.37;;;;;;;;;;5074460;28;20987;-68
2022/07/02 09:56:21;;;;;;;59.37;2.50;;;;;;;;;;5073291;28;20537;-69
2022/07/02 09:58:51;;;;;;;58.17;2.10;;;;;;;;;;5074355;28;20439;-67
2022/07/02 10:04:28;;;;;;;58.07;2.40;;;;;;;;;;5071684;28;20426;-68
2022/07/02 10:07:04;;;;;;;58.20;2.33;;;;;;;;;;5064099;28;20889;-68
2022/07/02 10:09:34;;;;;;;58.10;2.73;;;;;;;;;;5053299;28;20994;-68
2022/07/02 10:12:07;;;;;;;59.07;2.70;;;;;;;;;;5054100;28;21007;-67
2022/07/02 10:14:47;;;;;;;57.87;2.20;;;;;;;;;;5054122;28;20550;-67
2022/07/02 10:17:23;;;;;;;57.97;2.17;;;;;;;;;;5051805;28;20506;-67
2022/07/02 10:19:56;;;;;;;58.60;2.37;;;;;;;;;;5054541;28;20984;-67
2022/07/02 10:22:38;;;;;;;58.27;2.20;;;;;;;;;;5052531;28;20811;-67
2022/07/02 10:25:08;;;;;;;57.73;2.20;;;;;;;;;;5052503;28;20538;-68
2022/07/02 10:27:35;;;;;;;58.17;2.10;;;;;;;;;;5049969;28;20466;-67
2022/07/02 10:30:04;;;;;;;57.80;1.87;;;;;;;;;;5062682;28;20543;-67
2022/07/02 10:32:53;;;;;;;59.83;2.87;;;;;;;;;;5073279;28;20538;-68
2022/07/02 10:35:22;;;;;;;57.63;1.80;;;;;;;;;;5071651;28;20467;-68
2022/07/02 10:37:57;;;;;;;57.40;1.83;;;;;;;;;;5073975;28;20924;-67
2022/07/02 10:40:27;;;;;;;57.87;2.00;;;;;;;;;;5071128;28;20489;-68
2022/07/02 10:42:59;;;;;;;57.37;2.00;;;;;;;;;;5073602;28;20980;-68
2022/07/02 10:54:02;;;;;;;57.20;1.67;;;;;;;;;;4988726;28;20471;-68
2022/07/02 10:56:40;;;;;;;57.27;1.90;;;;;;;;;;4989612;28;20547;-67
2022/07/02 10:59:21;;;;;;;57.07;1.90;;;;;;;;;;4989923;28;20454;-68
2022/07/02 11:02:01;;;;;;;57.27;1.87;;;;;;;;;;4987504;28;20479;-68
2022/07/02 11:04:29;;;;;;;57.17;1.80;;;;;;;;;;4991513;28;21029;-69
2022/07/02 11:07:09;;;;;;;57.30;1.80;;;;;;;;;;4991851;28;20451;-67
2022/07/02 11:09:48;;;;;;;58.57;1.80;;;;;;;;;;4975643;28;20492;-66
2022/07/02 11:12:19;;;;;;;57.10;1.90;;;;;;;;;;4983639;28;20470;-67
2022/07/02 11:14:59;;;;;;;57.13;1.90;;;;;;;;;;4991244;28;20541;-67
2022/07/02 11:20:18;;;;;;;57.70;2.13;;;;;;;;;;5025912;28;20519;-67
2022/07/02 11:22:47;;;;;;;57.17;2.00;;;;;;;;;;5030754;28;20469;-67
2022/07/02 11:25:25;;;;;;;57.13;1.70;;;;;;;;;;5044835;28;20509;-67
2022/07/02 11:28:07;;;;;;;59.30;1.90;;;;;;;;;;5052818;28;21016;-68
2022/07/02 11:30:35;;;;;;;56.97;1.77;;;;;;;;;;5066545;28;20452;-67
2022/07/02 11:33:14;;;;;;;57.07;1.80;;;;;;;;;;5070354;28;20474;-67
2022/07/02 11:35:47;;;;;;;57.07;1.90;;;;;;;;;;5068046;28;20937;-67
2022/07/02 11:38:17;;;;;;;57.80;2.00;;;;;;;;;;5064172;28;20448;-67
2022/07/02 11:40:51;;;;;;;57.30;2.00;;;;;;;;;;5052678;28;20483;-68
2022/07/02 11:43:30;;;;;;;57.17;1.90;;;;;;;;;;5051816;28;20473;-68
2022/07/02 11:46:03;;;;;;;57.17;1.90;;;;;;;;;;5052644;28;20448;-68
2022/07/02 11:48:33;;;;;;;57.07;1.70;;;;;;;;;;5052562;28;20444;-68
2022/07/02 11:51:03;;;;;;;57.20;1.80;;;;;;;;;;5052692;28;20441;-69
2022/07/02 11:53:37;;;;;;;56.87;1.60;;;;;;;;;;5049881;28;20848;-68
2022/07/02 11:56:12;;;;;;;57.07;1.83;;;;;;;;;;5052697;28;20447;-68
2022/07/02 11:58:50;;;;;;;59.53;2.00;;;;;;;;;;5052176;28;20532;-69
2022/07/02 12:01:19;;;;;;;56.77;1.80;;;;;;;;;;5052658;28;20476;-68
2022/07/02 12:03:48;;;;;;;57.60;1.70;;;;;;;;;;5051327;28;21294;-69
2022/07/02 12:06:20;;;;;;;56.80;1.77;;;;;;;;;;5052372;28;20660;-69
2022/07/02 12:08:48;;;;;;;56.67;1.73;;;;;;;;;;5066803;28;20885;-69
2022/07/02 12:11:20;;;;;;;57.07;1.80;;;;;;;;;;5072254;28;20458;-69
2022/07/02 12:13:53;;;;;;;56.77;1.90;;;;;;;;;;5065741;28;20482;-69
2022/07/02 12:16:30;;;;;;;57.10;1.80;;;;;;;;;;5052305;28;20476;-69
2022/07/02 12:19:00;;;;;;;57.00;1.70;;;;;;;;;;5051537;28;20506;-69
2022/07/02 12:24:21;;;;;;;57.07;1.63;;;;;;;;;;5051739;28;20465;-66
2022/07/02 12:26:51;;;;;;;57.13;1.87;;;;;;;;;;5060658;28;20478;-66
2022/07/02 12:32:11;;;;;;;57.07;1.70;;;;;;;;;;5071814;28;20497;-68
2022/07/02 12:34:40;;;;;;;58.20;1.80;;;;;;;;;;5071449;28;20475;-68
2022/07/02 12:37:09;;;;;;;57.33;1.70;;;;;;;;;;5071719;28;20522;-68
2022/07/02 12:42:39;;;;;;;57.40;1.73;;;;;;;;;;5026288;28;20484;-68
2022/07/02 12:45:22;;;;;;;56.93;2.00;;;;;;;;;;5028982;28;20457;-68
2022/07/02 12:47:56;;;;;;;57.07;1.77;;;;;;;;;;5029235;28;20452;-68
2022/07/02 12:50:31;;;;;;;57.07;1.83;;;;;;;;;;5029460;28;21052;-68
2022/07/02 12:53:02;;;;;;;56.87;1.90;;;;;;;;;;5029502;28;20829;-68
2022/07/02 12:55:34;;;;;;;56.87;1.80;;;;;;;;;;5027835;28;20445;-67
2022/07/02 12:58:02;;;;;;;57.40;1.83;;;;;;;;;;5029235;28;20485;-68
2022/07/02 13:00:33;;;;;;;57.00;1.80;;;;;;;;;;5029210;28;20499;-68
2022/07/02 13:03:05;;;;;;;57.20;2.03;;;;;;;;;;5029147;28;21048;-68
2022/07/02 13:05:33;;;;;;;56.83;1.70;;;;;;;;;;5029204;28;20476;-68
2022/07/02 13:08:03;;;;;;;56.93;1.63;;;;;;;;;;5029085;28;20524;-68
2022/07/02 13:10:31;;;;;;;57.20;1.90;;;;;;;;;;5029373;28;20441;-68
2022/07/02 13:12:59;;;;;;;56.67;1.43;;;;;;;;;;5044847;28;20460;-68
2022/07/02 13:15:28;;;;;;;57.13;1.77;;;;;;;;;;5071802;28;20771;-68
2022/07/02 13:17:56;;;;;;;56.77;1.57;;;;;;;;;;5071430;28;20475;-68
2022/07/02 13:20:26;;;;;;;56.90;1.80;;;;;;;;;;5071570;28;20443;-68
2022/07/02 13:22:53;;;;;;;57.87;1.70;;;;;;;;;;5071372;28;21022;-68
2022/07/02 13:25:23;;;;;;;57.10;1.67;;;;;;;;;;5071493;28;20819;-68
2022/07/02 13:27:50;;;;;;;56.77;1.60;;;;;;;;;;5071624;28;20530;-68
2022/07/02 13:30:19;;;;;;;56.67;1.60;;;;;;;;;;5071658;28;20718;-68
2022/07/02 13:32:47;;;;;;;56.77;1.70;;;;;;;;;;5070602;28;20907;-68
2022/07/02 13:35:16;;;;;;;56.73;1.80;;;;;;;;;;5069957;28;20451;-68
2022/07/02 13:37:46;;;;;;;56.77;1.50;;;;;;;;;;5069862;28;20450;-68
2022/07/02 13:40:15;;;;;;;57.07;1.60;;;;;;;;;;5071365;28;20471;-68
2022/07/02 13:42:42;;;;;;;56.90;1.70;;;;;;;;;;5071368;28;20494;-68
2022/07/02 13:45:10;;;;;;;57.40;2.17;;;;;;;;;;5071232;28;20462;-67
2022/07/02 13:47:39;;;;;;;57.10;1.67;;;;;;;;;;5070956;28;20534;-67
2022/07/02 13:50:09;;;;;;;57.20;1.90;;;;;;;;;;5071299;28;20713;-68
2022/07/02 13:52:41;;;;;;;57.40;2.07;;;;;;;;;;5070996;28;20483;-68
2022/07/02 13:55:10;;;;;;;57.10;2.07;;;;;;;;;;5071424;28;20823;-68
2022/07/02 13:57:37;;;;;;;57.93;1.90;;;;;;;;;;5071063;28;20816;-68
2022/07/02 14:00:06;;;;;;;57.00;1.80;;;;;;;;;;5072608;28;20461;-68
2022/07/02 14:02:34;;;;;;;58.60;1.70;;;;;;;;;;5074627;28;20870;-68
2022/07/02 14:05:01;;;;;;;56.77;1.80;;;;;;;;;;5075183;28;20477;-68
2022/07/02 14:07:30;;;;;;;56.77;1.67;;;;;;;;;;5074746;28;20819;-68
2022/07/02 14:09:59;;;;;;;56.77;1.70;;;;;;;;;;5074956;28;20447;-68
2022/07/02 14:12:26;;;;;;;56.87;1.90;;;;;;;;;;5074614;28;20478;-68
2022/07/02 14:14:54;;;;;;;56.77;1.60;;;;;;;;;;5075155;28;20443;-68
2022/07/02 14:17:22;;;;;;;57.00;1.80;;;;;;;;;;5074302;28;20940;-67
2022/07/02 14:19:51;;;;;;;56.70;1.57;;;;;;;;;;5074801;28;20451;-67
2022/07/02 14:22:19;;;;;;;58.87;1.80;;;;;;;;;;5074656;28;20823;-68
2022/07/02 14:24:47;;;;;;;56.47;1.60;;;;;;;;;;5074690;28;20481;-67
2022/07/02 14:27:16;;;;;;;56.60;1.70;;;;;;;;;;5074290;28;20454;-67
2022/07/02 14:29:43;;;;;;;56.80;1.60;;;;;;;;;;5074522;28;20447;-67
2022/07/02 14:32:13;;;;;;;56.77;1.70;;;;;;;;;;5074275;28;20482;-67
2022/07/02 14:34:43;;;;;;;57.87;1.80;;;;;;;;;;5074291;28;20463;-67
2022/07/02 14:37:11;;;;;;;56.77;2.00;;;;;;;;;;5074096;28;20447;-67
2022/07/02 14:39:38;;;;;;;57.03;1.77;;;;;;;;;;5074341;28;20447;-67
2022/07/02 14:42:06;;;;;;;57.13;1.70;;;;;;;;;;5074239;28;20447;-67
2022/07/02 14:44:37;;;;;;;58.30;1.90;;;;;;;;;;5073823;28;20483;-67
2022/07/02 14:47:04;;;;;;;58.73;1.90;;;;;;;;;;5074283;28;20447;-67
2022/07/02 14:49:32;;;;;;;57.03;1.90;;;;;;;;;;5074102;28;20542;-68
2022/07/02 14:51:59;;;;;;;57.70;1.97;;;;;;;;;;5074044;28;20534;-68
2022/07/02 14:54:26;;;;;;;57.20;1.67;;;;;;;;;;5073731;28;21087;-67
2022/07/02 14:56:54;;;;;;;60.47;2.10;;;;;;;;;;5073833;28;20447;-67
2022/07/02 14:59:21;;;;;;;57.00;1.80;;;;;;;;;;5073520;28;20819;-68
2022/07/02 15:01:51;;;;;;;56.97;1.80;;;;;;;;;;5073430;28;20447;-68
2022/07/02 15:04:18;;;;;;;61.47;1.80;;;;;;;;;;5073730;28;20467;-67
2022/07/02 15:06:45;;;;;;;57.30;1.80;;;;;;;;;;5073847;28;20500;-68
2022/07/02 15:09:12;;;;;;;58.27;1.90;;;;;;;;;;5073378;28;20458;-67
2022/07/02 15:11:39;;;;;;;56.87;1.80;;;;;;;;;;5072776;28;20479;-67
2022/07/02 15:16:53;;;;;;;57.07;1.90;;;;;;;;;;5073543;28;20505;-67
2022/07/02 15:19:20;;;;;;;57.17;1.80;;;;;;;;;;5073248;28;20530;-67